Time;durP1;ratioP1;P1;durP2;ratioP2;P2;SDS_P1;SDS_P2;PMS_P1;PMS_P2;Temp;Humidity;BMP_temperature;BMP_pressure;BME280_temperature;BME280_humidity;BME280_pressure;Samples;Min_cycle;Max_cycle;Signal;HPM_P1;HPM_P2
2023/04/16 00:01:25;;;;;;;7.83;6.07;;;;;;;;;;5011945;28;20223;-81
2023/04/16 00:03:52;;;;;;;9.57;6.23;;;;;;;;;;5012005;28;20212;-82
2023/04/16 00:06:20;;;;;;;6.90;6.00;;;;;;;;;;5013750;28;20681;-82
2023/04/16 00:08:47;;;;;;;6.83;6.07;;;;;;;;;;5013537;28;20200;-82
2023/04/16 00:11:14;;;;;;;6.43;5.40;;;;;;;;;;5011342;28;20234;-82
2023/04/16 00:13:41;;;;;;;9.60;6.43;;;;;;;;;;5012427;28;20208;-82
2023/04/16 00:16:09;;;;;;;7.40;6.13;;;;;;;;;;5019596;28;20230;-82
2023/04/16 00:18:36;;;;;;;7.10;6.40;;;;;;;;;;5015817;28;20211;-82
2023/04/16 00:21:03;;;;;;;8.90;6.57;;;;;;;;;;5015622;28;20223;-82
2023/04/16 00:23:31;;;;;;;9.00;6.57;;;;;;;;;;5016299;28;20204;-82
2023/04/16 00:25:58;;;;;;;8.83;6.77;;;;;;;;;;5015828;28;20237;-82
2023/04/16 00:28:26;;;;;;;9.00;6.40;;;;;;;;;;5016213;28;20219;-82
2023/04/16 00:30:53;;;;;;;7.00;6.10;;;;;;;;;;5015368;28;20242;-82
2023/04/16 00:33:20;;;;;;;9.40;6.40;;;;;;;;;;5015830;28;20207;-82
2023/04/16 00:35:47;;;;;;;8.63;6.00;;;;;;;;;;5015259;28;20231;-82
2023/04/16 00:38:14;;;;;;;8.00;6.17;;;;;;;;;;5015811;28;20720;-82
2023/04/16 00:40:43;;;;;;;9.77;6.87;;;;;;;;;;5015340;28;20235;-82
2023/04/16 00:43:10;;;;;;;10.80;6.70;;;;;;;;;;5015792;28;20218;-81
2023/04/16 00:45:37;;;;;;;10.13;6.83;;;;;;;;;;5014992;28;20231;-82
2023/04/16 00:48:05;;;;;;;9.07;6.87;;;;;;;;;;5015228;28;20231;-83
2023/04/16 00:50:32;;;;;;;7.23;5.83;;;;;;;;;;5010852;28;20215;-82
2023/04/16 00:52:59;;;;;;;8.67;6.90;;;;;;;;;;5015492;28;20203;-82
2023/04/16 00:55:26;;;;;;;8.33;6.83;;;;;;;;;;5014925;28;20207;-82
2023/04/16 00:57:54;;;;;;;11.50;6.77;;;;;;;;;;5014662;28;20727;-83
2023/04/16 01:00:22;;;;;;;8.73;7.10;;;;;;;;;;5019687;28;20215;-83
2023/04/16 01:02:49;;;;;;;8.27;6.67;;;;;;;;;;5012073;28;20214;-82
2023/04/16 01:05:16;;;;;;;7.90;6.90;;;;;;;;;;5015374;28;20684;-82
2023/04/16 01:07:43;;;;;;;9.37;7.07;;;;;;;;;;5016383;28;20231;-82
2023/04/16 01:10:10;;;;;;;9.27;7.10;;;;;;;;;;5018683;28;20212;-83
2023/04/16 01:12:37;;;;;;;12.40;7.07;;;;;;;;;;5015063;28;20254;-83
2023/04/16 01:15:06;;;;;;;8.53;7.00;;;;;;;;;;5015368;28;20677;-82
2023/04/16 01:17:33;;;;;;;9.73;6.87;;;;;;;;;;5014679;28;20230;-82
2023/04/16 01:20:00;;;;;;;12.03;7.53;;;;;;;;;;5015079;28;20200;-82
2023/04/16 01:22:29;;;;;;;12.20;7.43;;;;;;;;;;5014409;28;20704;-82
2023/04/16 01:24:56;;;;;;;10.13;7.13;;;;;;;;;;5019057;28;20261;-82
2023/04/16 01:27:23;;;;;;;8.57;6.53;;;;;;;;;;5012995;28;20299;-83
2023/04/16 01:29:50;;;;;;;7.33;6.47;;;;;;;;;;5015278;28;20204;-82
2023/04/16 01:32:17;;;;;;;11.90;7.37;;;;;;;;;;5014409;28;20227;-83
2023/04/16 01:34:44;;;;;;;8.77;7.03;;;;;;;;;;5015864;28;20207;-82
2023/04/16 01:37:13;;;;;;;10.93;7.10;;;;;;;;;;5015163;28;20226;-82
2023/04/16 01:39:41;;;;;;;9.50;7.40;;;;;;;;;;5014946;28;20213;-83
2023/04/16 01:42:08;;;;;;;9.17;7.90;;;;;;;;;;5013937;28;20234;-83
2023/04/16 01:44:36;;;;;;;9.00;6.90;;;;;;;;;;5019359;28;20206;-83
2023/04/16 01:47:03;;;;;;;13.80;7.73;;;;;;;;;;5014249;28;20254;-83
2023/04/16 01:49:30;;;;;;;9.10;6.97;;;;;;;;;;5014985;28;20203;-83
2023/04/16 01:51:57;;;;;;;8.47;6.73;;;;;;;;;;5014101;28;20235;-83
2023/04/16 01:54:24;;;;;;;8.80;6.83;;;;;;;;;;5017818;28;20218;-83
2023/04/16 01:56:53;;;;;;;9.47;7.03;;;;;;;;;;5013835;28;20782;-83
2023/04/16 01:59:21;;;;;;;10.33;7.37;;;;;;;;;;5020522;28;20565;-83
2023/04/16 02:01:48;;;;;;;11.47;7.40;;;;;;;;;;5013688;28;20595;-83
2023/04/16 02:04:15;;;;;;;10.47;7.50;;;;;;;;;;5014477;28;20204;-82
2023/04/16 02:06:43;;;;;;;10.90;7.00;;;;;;;;;;5013601;28;20239;-83
2023/04/16 02:09:10;;;;;;;10.83;8.00;;;;;;;;;;5013770;28;20632;-83
2023/04/16 02:11:37;;;;;;;8.70;7.30;;;;;;;;;;5013615;28;20238;-83
2023/04/16 02:14:07;;;;;;;9.93;6.67;;;;;;;;;;4999614;28;20574;-83
2023/04/16 02:16:34;;;;;;;9.67;7.20;;;;;;;;;;5013368;28;20299;-83
2023/04/16 02:19:02;;;;;;;8.80;7.20;;;;;;;;;;5013679;28;20573;-83
2023/04/16 02:21:30;;;;;;;8.30;7.00;;;;;;;;;;5013648;28;20227;-83
2023/04/16 02:23:57;;;;;;;10.67;7.10;;;;;;;;;;5014243;28;20298;-83
2023/04/16 02:26:25;;;;;;;10.27;7.20;;;;;;;;;;5013649;28;20235;-83
2023/04/16 02:28:52;;;;;;;10.83;7.50;;;;;;;;;;5013644;28;20219;-83
2023/04/16 02:31:21;;;;;;;10.00;7.10;;;;;;;;;;5013814;28;20227;-82
2023/04/16 02:33:48;;;;;;;8.70;6.87;;;;;;;;;;5013961;28;20219;-83
2023/04/16 02:36:15;;;;;;;10.40;7.17;;;;;;;;;;5014878;28;20238;-83
2023/04/16 02:38:42;;;;;;;11.23;7.27;;;;;;;;;;5021968;28;20207;-83
2023/04/16 02:41:09;;;;;;;8.63;7.23;;;;;;;;;;5022731;28;20311;-83
2023/04/16 02:43:36;;;;;;;10.13;7.30;;;;;;;;;;5013435;28;20207;-83
2023/04/16 02:46:03;;;;;;;10.20;7.43;;;;;;;;;;5012495;28;20227;-83
2023/04/16 02:48:32;;;;;;;11.27;7.30;;;;;;;;;;5013002;28;20234;-83
2023/04/16 02:50:59;;;;;;;11.63;8.03;;;;;;;;;;5012485;28;20245;-83
2023/04/16 02:53:26;;;;;;;11.10;7.37;;;;;;;;;;5009000;28;20282;-84
2023/04/16 02:55:54;;;;;;;10.90;7.70;;;;;;;;;;5011145;28;20237;-83
2023/04/16 02:58:22;;;;;;;10.43;7.20;;;;;;;;;;5013163;28;20238;-83
2023/04/16 03:00:49;;;;;;;9.80;7.70;;;;;;;;;;5007216;28;20251;-83
2023/04/16 03:03:17;;;;;;;9.20;7.40;;;;;;;;;;5013090;28;20676;-83
2023/04/16 03:05:45;;;;;;;10.13;7.80;;;;;;;;;;5012501;28;20241;-83
2023/04/16 03:08:12;;;;;;;9.17;7.57;;;;;;;;;;5004741;28;20223;-84
2023/04/16 03:10:40;;;;;;;11.27;7.67;;;;;;;;;;5009032;28;20755;-82
2023/04/16 03:13:07;;;;;;;10.13;8.03;;;;;;;;;;5004871;28;20207;-83
2023/04/16 03:15:34;;;;;;;9.50;7.30;;;;;;;;;;5012385;28;20243;-83
2023/04/16 03:18:01;;;;;;;10.90;7.50;;;;;;;;;;5043996;23;20682;-83
2023/04/16 03:20:28;;;;;;;10.27;7.63;;;;;;;;;;5024427;28;20212;-84
2023/04/16 03:22:57;;;;;;;10.20;7.50;;;;;;;;;;5028178;28;20241;-83
2023/04/16 03:25:24;;;;;;;11.67;8.07;;;;;;;;;;5019573;28;20579;-83
2023/04/16 03:27:51;;;;;;;10.33;7.53;;;;;;;;;;5025645;28;20595;-83
2023/04/16 03:30:18;;;;;;;11.27;7.70;;;;;;;;;;5022897;28;20237;-84
2023/04/16 03:32:45;;;;;;;12.33;7.73;;;;;;;;;;5029504;28;20287;-84
2023/04/16 03:35:12;;;;;;;12.10;8.03;;;;;;;;;;5021668;28;20206;-84
2023/04/16 03:37:39;;;;;;;11.63;8.23;;;;;;;;;;5030066;28;20227;-83
2023/04/16 03:40:08;;;;;;;10.70;7.67;;;;;;;;;;5022988;28;20209;-83
2023/04/16 03:42:36;;;;;;;10.30;7.50;;;;;;;;;;5024295;28;20223;-83
2023/04/16 03:45:03;;;;;;;11.70;8.30;;;;;;;;;;5028459;28;20280;-84
2023/04/16 03:47:30;;;;;;;10.73;7.80;;;;;;;;;;5019338;28;20223;-83
2023/04/16 03:49:57;;;;;;;10.20;7.60;;;;;;;;;;5020817;28;20235;-83
2023/04/16 03:52:24;;;;;;;12.23;7.87;;;;;;;;;;5022989;28;20619;-83
2023/04/16 03:54:51;;;;;;;9.53;7.17;;;;;;;;;;5022638;28;20282;-83
2023/04/16 03:57:19;;;;;;;13.83;7.53;;;;;;;;;;5018781;28;20234;-83
2023/04/16 03:59:46;;;;;;;13.23;8.63;;;;;;;;;;5019909;28;20195;-83
2023/04/16 04:02:13;;;;;;;12.30;7.77;;;;;;;;;;5023102;28;20227;-83
2023/04/16 04:04:40;;;;;;;11.13;7.60;;;;;;;;;;5023273;28;20207;-83
2023/04/16 04:07:08;;;;;;;8.30;6.97;;;;;;;;;;5020754;28;20225;-83
2023/04/16 04:09:35;;;;;;;11.23;7.83;;;;;;;;;;5022585;28;20237;-83
2023/04/16 04:12:02;;;;;;;12.97;8.63;;;;;;;;;;5022533;28;20726;-83
2023/04/16 04:14:31;;;;;;;11.63;7.60;;;;;;;;;;5023304;28;20206;-83
2023/04/16 04:16:58;;;;;;;12.57;8.57;;;;;;;;;;5020852;28;20238;-83
2023/04/16 04:19:25;;;;;;;11.73;8.20;;;;;;;;;;5020003;28;20214;-83
2023/04/16 04:21:52;;;;;;;11.40;9.20;;;;;;;;;;5019358;28;20231;-84
2023/04/16 04:24:19;;;;;;;12.10;8.50;;;;;;;;;;5020871;28;20199;-83
2023/04/16 04:26:46;;;;;;;10.93;8.03;;;;;;;;;;5019167;28;20243;-83
2023/04/16 04:29:14;;;;;;;11.63;8.47;;;;;;;;;;5028548;28;20223;-84
2023/04/16 04:31:43;;;;;;;10.80;8.80;;;;;;;;;;5022646;28;20327;-83
2023/04/16 04:34:10;;;;;;;12.83;8.83;;;;;;;;;;5016115;28;20221;-84
2023/04/16 04:36:37;;;;;;;14.80;8.63;;;;;;;;;;5027912;28;20230;-83
2023/04/16 04:39:04;;;;;;;15.50;8.93;;;;;;;;;;5020387;28;20203;-83
2023/04/16 04:41:31;;;;;;;12.77;9.20;;;;;;;;;;5024961;28;20234;-83
2023/04/16 04:43:58;;;;;;;11.10;8.10;;;;;;;;;;5026725;28;20210;-83
2023/04/16 04:46:26;;;;;;;10.63;8.53;;;;;;;;;;5019211;28;20227;-83
2023/04/16 04:48:54;;;;;;;13.83;9.73;;;;;;;;;;5020042;28;20236;-83
2023/04/16 04:51:21;;;;;;;12.37;8.97;;;;;;;;;;5022471;28;20724;-83
2023/04/16 04:53:48;;;;;;;13.60;9.77;;;;;;;;;;5020196;28;20575;-83
2023/04/16 04:56:15;;;;;;;13.20;9.27;;;;;;;;;;5022452;28;20226;-83
2023/04/16 04:58:43;;;;;;;10.53;8.60;;;;;;;;;;5026420;28;20707;-83
2023/04/16 05:01:10;;;;;;;11.77;8.83;;;;;;;;;;5028293;28;20309;-83
2023/04/16 05:03:37;;;;;;;11.60;9.27;;;;;;;;;;5023244;28;20203;-83
2023/04/16 05:06:05;;;;;;;14.50;9.50;;;;;;;;;;5024577;28;20713;-84
2023/04/16 05:08:32;;;;;;;13.67;9.37;;;;;;;;;;5027124;28;20230;-83
2023/04/16 05:11:00;;;;;;;14.47;9.63;;;;;;;;;;5023188;28;20317;-85
2023/04/16 05:13:28;;;;;;;16.63;9.47;;;;;;;;;;5022271;28;20203;-83
2023/04/16 05:15:55;;;;;;;14.27;9.67;;;;;;;;;;5021996;28;20329;-85
2023/04/16 05:18:22;;;;;;;11.77;9.20;;;;;;;;;;5022301;28;20227;-84
2023/04/16 05:20:49;;;;;;;16.80;11.00;;;;;;;;;;5020862;28;20253;-84
2023/04/16 05:23:18;;;;;;;15.43;9.80;;;;;;;;;;5021238;28;20603;-84
2023/04/16 05:25:45;;;;;;;14.90;9.50;;;;;;;;;;5021724;28;20235;-83
2023/04/16 05:28:12;;;;;;;12.80;9.80;;;;;;;;;;5016780;28;20321;-83
2023/04/16 05:30:39;;;;;;;13.93;9.50;;;;;;;;;;5024890;28;20237;-83
2023/04/16 05:33:06;;;;;;;16.47;12.17;;;;;;;;;;5022735;28;20215;-83
2023/04/16 05:35:33;;;;;;;17.90;13.20;;;;;;;;;;5021118;28;20207;-83
2023/04/16 05:38:01;;;;;;;14.33;11.50;;;;;;;;;;5021831;28;20230;-83
2023/04/16 05:40:29;;;;;;;16.77;12.27;;;;;;;;;;5017532;28;20207;-84
2023/04/16 05:42:56;;;;;;;16.30;13.30;;;;;;;;;;5027218;28;20573;-84
2023/04/16 05:45:23;;;;;;;15.80;12.13;;;;;;;;;;5021377;28;20218;-84
2023/04/16 05:47:50;;;;;;;18.17;12.80;;;;;;;;;;5021302;28;20773;-83
2023/04/16 05:50:17;;;;;;;19.50;14.60;;;;;;;;;;5020596;28;20230;-84
2023/04/16 05:52:44;;;;;;;19.93;13.97;;;;;;;;;;5021528;28;20568;-83
2023/04/16 05:55:12;;;;;;;13.70;10.27;;;;;;;;;;5023081;28;20246;-83
2023/04/16 05:57:40;;;;;;;14.73;11.10;;;;;;;;;;5012870;28;20231;-84
2023/04/16 06:00:08;;;;;;;13.53;9.67;;;;;;;;;;5021045;28;20211;-83
2023/04/16 06:02:35;;;;;;;15.30;11.73;;;;;;;;;;5016428;28;20249;-84
2023/04/16 06:05:02;;;;;;;14.50;9.50;;;;;;;;;;5024534;28;20215;-84
2023/04/16 06:07:29;;;;;;;12.67;9.30;;;;;;;;;;5031274;28;20597;-84
2023/04/16 06:09:56;;;;;;;12.03;9.50;;;;;;;;;;5023893;28;20576;-84
2023/04/16 06:12:23;;;;;;;13.17;9.53;;;;;;;;;;5026829;28;20720;-85
2023/04/16 06:14:51;;;;;;;13.33;10.23;;;;;;;;;;5020418;28;20217;-84
2023/04/16 06:17:18;;;;;;;13.20;9.83;;;;;;;;;;5015755;28;20230;-86
2023/04/16 06:19:52;;;;;;;14.07;10.27;;;;;;;;;;5031649;28;20257;-86
2023/04/16 06:22:19;;;;;;;16.67;10.90;;;;;;;;;;5023432;28;20763;-85
2023/04/16 06:24:49;;;;;;;11.23;8.93;;;;;;;;;;5016987;28;20211;-85
2023/04/16 06:27:16;;;;;;;12.27;9.60;;;;;;;;;;5031579;28;20226;-85
2023/04/16 06:29:44;;;;;;;20.63;12.27;;;;;;;;;;5032116;28;20237;-86
2023/04/16 06:32:13;;;;;;;13.90;9.50;;;;;;;;;;5029241;28;20230;-86
2023/04/16 06:34:40;;;;;;;13.63;9.50;;;;;;;;;;5027254;28;20706;-85
2023/04/16 06:37:07;;;;;;;12.83;9.27;;;;;;;;;;5023198;28;20259;-85
2023/04/16 06:39:34;;;;;;;12.73;8.70;;;;;;;;;;5018250;28;20239;-84
2023/04/16 06:42:01;;;;;;;15.10;12.00;;;;;;;;;;5019923;28;20232;-84
2023/04/16 06:44:28;;;;;;;12.87;9.60;;;;;;;;;;5019582;28;20210;-82
2023/04/16 06:46:55;;;;;;;14.27;9.87;;;;;;;;;;5020028;28;20250;-82
2023/04/16 06:49:24;;;;;;;13.33;10.03;;;;;;;;;;5027522;28;20221;-83
2023/04/16 06:51:51;;;;;;;12.27;8.73;;;;;;;;;;5021325;28;20223;-85
2023/04/16 06:54:18;;;;;;;13.20;9.47;;;;;;;;;;5023656;28;20203;-83
2023/04/16 06:56:45;;;;;;;15.90;11.23;;;;;;;;;;5031143;28;20230;-82
2023/04/16 06:59:12;;;;;;;17.43;11.27;;;;;;;;;;5018418;28;20218;-83
2023/04/16 07:01:40;;;;;;;11.43;9.30;;;;;;;;;;5030928;28;20234;-83
2023/04/16 07:04:07;;;;;;;11.17;9.03;;;;;;;;;;5031000;28;20210;-82
2023/04/16 07:06:35;;;;;;;14.03;9.90;;;;;;;;;;5017673;28;20257;-83
2023/04/16 07:09:02;;;;;;;14.30;9.77;;;;;;;;;;5011098;28;20230;-83
2023/04/16 07:11:30;;;;;;;11.83;9.37;;;;;;;;;;5016578;28;20643;-84
2023/04/16 07:13:57;;;;;;;14.30;9.57;;;;;;;;;;5031329;28;20920;-83
2023/04/16 07:16:24;;;;;;;11.20;9.07;;;;;;;;;;5030957;28;20313;-85
2023/04/16 07:18:52;;;;;;;13.83;9.63;;;;;;;;;;5031189;28;20603;-85
2023/04/16 07:21:19;;;;;;;16.07;10.90;;;;;;;;;;5022656;28;20223;-85
2023/04/16 07:23:48;;;;;;;14.60;10.00;;;;;;;;;;5031101;28;20203;-85
2023/04/16 07:26:15;;;;;;;13.77;10.70;;;;;;;;;;5029312;28;20230;-85
2023/04/16 07:28:42;;;;;;;14.63;10.90;;;;;;;;;;5016572;28;20227;-84
2023/04/16 07:31:09;;;;;;;11.57;9.37;;;;;;;;;;5029060;28;20238;-85
2023/04/16 07:33:37;;;;;;;14.97;10.20;;;;;;;;;;5031459;28;20320;-84
2023/04/16 07:36:04;;;;;;;13.27;9.40;;;;;;;;;;5030569;28;20249;-85
2023/04/16 07:38:31;;;;;;;15.43;9.80;;;;;;;;;;5030667;28;20652;-85
2023/04/16 07:40:59;;;;;;;17.50;10.93;;;;;;;;;;5030130;28;20238;-85
2023/04/16 07:43:26;;;;;;;14.70;10.63;;;;;;;;;;5031282;28;20218;-85
2023/04/16 07:45:53;;;;;;;16.70;11.63;;;;;;;;;;5022882;28;20239;-85
2023/04/16 07:48:22;;;;;;;13.47;10.33;;;;;;;;;;5030468;28;20241;-84
2023/04/16 07:50:50;;;;;;;18.37;10.70;;;;;;;;;;5029801;28;20250;-84
2023/04/16 07:53:17;;;;;;;16.83;11.10;;;;;;;;;;5030333;28;20660;-85
2023/04/16 07:55:44;;;;;;;16.60;11.13;;;;;;;;;;5030494;28;20842;-86
2023/04/16 07:58:12;;;;;;;13.93;10.83;;;;;;;;;;5024397;28;20237;-85
2023/04/16 08:00:39;;;;;;;16.37;10.40;;;;;;;;;;5028871;28;20222;-86
2023/04/16 08:03:06;;;;;;;15.33;11.67;;;;;;;;;;5023510;28;20214;-86
2023/04/16 08:05:34;;;;;;;18.60;11.23;;;;;;;;;;5015457;28;20238;-85
2023/04/16 08:08:01;;;;;;;17.87;13.53;;;;;;;;;;5029777;28;20233;-85
2023/04/16 08:10:28;;;;;;;23.27;15.60;;;;;;;;;;5029393;28;20611;-86
2023/04/16 08:12:55;;;;;;;25.27;16.30;;;;;;;;;;5014248;28;20227;-86
2023/04/16 08:15:23;;;;;;;15.63;9.57;;;;;;;;;;5013762;28;20695;-85
2023/04/16 08:17:50;;;;;;;20.63;11.80;;;;;;;;;;5021542;28;20231;-86
2023/04/16 08:20:17;;;;;;;13.87;10.77;;;;;;;;;;5023987;28;20211;-87
2023/04/16 08:22:45;;;;;;;19.50;11.23;;;;;;;;;;5018601;28;20199;-85
2023/04/16 08:25:12;;;;;;;13.33;9.67;;;;;;;;;;5020846;28;20290;-86
2023/04/16 08:27:39;;;;;;;14.47;10.03;;;;;;;;;;5023926;28;20235;-85
2023/04/16 08:30:07;;;;;;;15.07;10.20;;;;;;;;;;5025226;28;20229;-86
2023/04/16 08:32:35;;;;;;;12.63;9.47;;;;;;;;;;5018224;28;20239;-86
2023/04/16 08:35:03;;;;;;;14.47;10.67;;;;;;;;;;5026941;28;20819;-85
2023/04/16 08:37:30;;;;;;;14.53;10.23;;;;;;;;;;5017298;28;20230;-85
2023/04/16 08:39:57;;;;;;;15.80;10.47;;;;;;;;;;5026024;28;20695;-85
2023/04/16 08:42:30;;;;;;;12.60;8.70;;;;;;;;;;5024946;28;20237;-85
2023/04/16 08:45:03;;;;;;;16.43;10.23;;;;;;;;;;5021433;28;20298;-87
2023/04/16 08:47:34;;;;;;;16.10;9.87;;;;;;;;;;5025969;28;20697;-87
2023/04/16 08:50:03;;;;;;;15.37;10.03;;;;;;;;;;5017606;28;20228;-86
2023/04/16 08:52:31;;;;;;;14.10;10.20;;;;;;;;;;5025089;28;21010;-85
2023/04/16 08:55:01;;;;;;;13.50;10.00;;;;;;;;;;5033420;28;20210;-86
2023/04/16 08:57:31;;;;;;;14.93;9.80;;;;;;;;;;5033085;28;20563;-85
2023/04/16 08:59:58;;;;;;;15.77;10.70;;;;;;;;;;5022964;28;20264;-84
2023/04/16 09:02:26;;;;;;;17.63;13.30;;;;;;;;;;5026598;28;20231;-85
2023/04/16 09:04:54;;;;;;;14.17;10.20;;;;;;;;;;5022275;28;20660;-85
2023/04/16 09:07:22;;;;;;;13.77;10.00;;;;;;;;;;5024439;28;20239;-85
2023/04/16 09:09:51;;;;;;;15.00;11.23;;;;;;;;;;5027863;28;20223;-86
2023/04/16 09:12:18;;;;;;;15.57;11.70;;;;;;;;;;5029110;28;20726;-85
2023/04/16 09:14:49;;;;;;;14.83;10.80;;;;;;;;;;5033073;28;20214;-85
2023/04/16 09:17:16;;;;;;;14.30;10.20;;;;;;;;;;5045960;23;20218;-85
2023/04/16 09:19:43;;;;;;;13.63;10.07;;;;;;;;;;5033520;28;20203;-85
2023/04/16 09:22:10;;;;;;;15.27;9.90;;;;;;;;;;5025480;28;20245;-85
2023/04/16 09:24:39;;;;;;;13.70;9.70;;;;;;;;;;5034114;28;20229;-85
2023/04/16 09:27:08;;;;;;;14.70;10.37;;;;;;;;;;5033654;28;20309;-86
2023/04/16 09:29:35;;;;;;;16.03;11.60;;;;;;;;;;5018141;28;20226;-86
2023/04/16 09:32:03;;;;;;;14.83;10.57;;;;;;;;;;5032659;28;20711;-85
2023/04/16 09:34:32;;;;;;;14.67;9.97;;;;;;;;;;5034220;28;20207;-87
2023/04/16 09:37:14;;;;;;;13.63;10.10;;;;;;;;;;5022627;28;20592;-86
2023/04/16 09:39:43;;;;;;;14.27;10.13;;;;;;;;;;5027775;28;20215;-85
2023/04/16 09:42:10;;;;;;;14.90;10.60;;;;;;;;;;5021318;28;20739;-85
2023/04/16 09:44:37;;;;;;;14.17;10.20;;;;;;;;;;5034036;28;20233;-84
2023/04/16 09:47:06;;;;;;;15.47;10.23;;;;;;;;;;5015899;28;20696;-83
2023/04/16 09:49:34;;;;;;;12.87;9.93;;;;;;;;;;5015004;28;20234;-84
2023/04/16 09:52:02;;;;;;;15.27;11.57;;;;;;;;;;5027682;28;20250;-84
2023/04/16 09:54:29;;;;;;;14.93;10.70;;;;;;;;;;5029995;28;20270;-84
2023/04/16 09:56:57;;;;;;;17.77;11.23;;;;;;;;;;5028272;28;20233;-84
2023/04/16 09:59:25;;;;;;;14.77;10.77;;;;;;;;;;5033070;28;20210;-85
2023/04/16 10:01:52;;;;;;;14.97;10.50;;;;;;;;;;5027138;28;20258;-84
2023/04/16 10:04:21;;;;;;;14.57;10.33;;;;;;;;;;5032689;28;20657;-85
2023/04/16 10:07:03;;;;;;;14.03;10.43;;;;;;;;;;5032897;28;20744;-84
2023/04/16 10:09:32;;;;;;;15.90;10.00;;;;;;;;;;5033730;28;20268;-85
2023/04/16 10:12:00;;;;;;;14.03;10.33;;;;;;;;;;5029890;28;20755;-85
2023/04/16 10:14:27;;;;;;;18.00;10.87;;;;;;;;;;5025354;28;20207;-85
2023/04/16 10:16:56;;;;;;;16.73;10.33;;;;;;;;;;5033031;28;20234;-84
2023/04/16 10:19:23;;;;;;;16.20;11.50;;;;;;;;;;5032777;28;20214;-85
2023/04/16 10:21:50;;;;;;;12.77;9.80;;;;;;;;;;5032145;28;20226;-84
2023/04/16 10:24:18;;;;;;;15.70;11.00;;;;;;;;;;5032954;28;20218;-84
2023/04/16 10:26:45;;;;;;;14.90;10.20;;;;;;;;;;5027770;28;20249;-85
2023/04/16 10:29:14;;;;;;;16.97;12.07;;;;;;;;;;5030837;28;20237;-85
2023/04/16 10:31:41;;;;;;;14.93;11.57;;;;;;;;;;5027488;28;20231;-86
2023/04/16 10:34:09;;;;;;;16.20;11.57;;;;;;;;;;5033111;28;20215;-86
2023/04/16 10:36:37;;;;;;;20.83;13.73;;;;;;;;;;5025995;28;20233;-85
2023/04/16 10:39:04;;;;;;;18.47;12.87;;;;;;;;;;5045028;28;20290;-87
2023/04/16 10:41:33;;;;;;;36.93;24.63;;;;;;;;;;5039027;28;20237;-86
2023/04/16 10:44:08;;;;;;;18.47;13.60;;;;;;;;;;5045126;28;20253;-86
2023/04/16 10:46:37;;;;;;;17.03;12.20;;;;;;;;;;5037148;28;20245;-86
2023/04/16 10:49:13;;;;;;;14.37;10.27;;;;;;;;;;5032730;28;20230;-86
2023/04/16 10:51:41;;;;;;;14.43;10.53;;;;;;;;;;5027088;28;20235;-84
2023/04/16 10:54:20;;;;;;;15.47;12.63;;;;;;;;;;5021408;28;20222;-86
2023/04/16 10:56:47;;;;;;;13.03;9.90;;;;;;;;;;5018722;28;20222;-86
2023/04/16 10:59:18;;;;;;;13.97;10.23;;;;;;;;;;5033203;28;20226;-86
2023/04/16 11:01:47;;;;;;;13.37;9.90;;;;;;;;;;5026150;28;20242;-86
2023/04/16 11:04:27;;;;;;;13.43;9.43;;;;;;;;;;5017797;28;20211;-87
2023/04/16 11:07:01;;;;;;;15.93;11.90;;;;;;;;;;5027726;28;20531;-85
2023/04/16 11:09:48;;;;;;;14.40;10.37;;;;;;;;;;5032586;28;20651;-84
2023/04/16 11:12:47;;;;;;;15.17;11.33;;;;;;;;;;5024656;28;20811;-87
2023/04/16 11:15:14;;;;;;;14.70;10.17;;;;;;;;;;4953358;28;20213;-87
2023/04/16 11:17:43;;;;;;;14.43;10.27;;;;;;;;;;5018284;28;20231;-87
2023/04/16 11:20:15;;;;;;;16.37;11.50;;;;;;;;;;5024774;28;20676;-86
2023/04/16 11:22:44;;;;;;;13.97;10.43;;;;;;;;;;5024628;28;20265;-87
2023/04/16 11:25:11;;;;;;;15.93;11.23;;;;;;;;;;5025583;28;20219;-86
2023/04/16 11:27:38;;;;;;;18.33;11.33;;;;;;;;;;5025488;28;20266;-85
2023/04/16 11:30:08;;;;;;;15.60;11.70;;;;;;;;;;5032229;28;20230;-88
2023/04/16 11:32:36;;;;;;;12.67;9.87;;;;;;;;;;5021700;28;20235;-85
2023/04/16 11:35:05;;;;;;;16.13;11.97;;;;;;;;;;5032953;28;20211;-85
2023/04/16 11:37:34;;;;;;;13.80;10.60;;;;;;;;;;5029098;28;20546;-85
2023/04/16 11:40:03;;;;;;;14.43;11.00;;;;;;;;;;5019663;28;20203;-85
2023/04/16 11:42:30;;;;;;;16.27;11.00;;;;;;;;;;5019071;28;20910;-85
2023/04/16 11:45:00;;;;;;;13.43;10.27;;;;;;;;;;5026502;28;20203;-85
2023/04/16 11:47:27;;;;;;;14.80;10.60;;;;;;;;;;5030604;28;20241;-83
2023/04/16 11:49:54;;;;;;;16.57;12.37;;;;;;;;;;5022789;28;20210;-83
2023/04/16 11:52:30;;;;;;;14.40;11.50;;;;;;;;;;5030209;28;20240;-84
2023/04/16 11:54:57;;;;;;;14.33;11.10;;;;;;;;;;5028603;28;20213;-83
2023/04/16 11:57:25;;;;;;;12.77;10.33;;;;;;;;;;5027278;28;20250;-84
2023/04/16 11:59:52;;;;;;;12.80;10.13;;;;;;;;;;5024632;28;20260;-84
2023/04/16 12:02:34;;;;;;;11.47;10.00;;;;;;;;;;5025409;28;20250;-84
2023/04/16 12:05:02;;;;;;;14.60;10.30;;;;;;;;;;5026836;28;20617;-84
2023/04/16 12:07:30;;;;;;;12.40;10.10;;;;;;;;;;5025744;28;20231;-83
2023/04/16 12:10:05;;;;;;;12.37;9.80;;;;;;;;;;5031159;28;20202;-84
2023/04/16 12:12:33;;;;;;;13.83;11.20;;;;;;;;;;5025160;28;20230;-83
2023/04/16 12:15:02;;;;;;;11.30;9.60;;;;;;;;;;5035411;28;20210;-84
2023/04/16 12:17:29;;;;;;;13.50;10.23;;;;;;;;;;5034757;28;20288;-83
2023/04/16 12:19:57;;;;;;;12.53;10.30;;;;;;;;;;5029176;28;20207;-83
2023/04/16 12:22:28;;;;;;;12.97;9.93;;;;;;;;;;5017950;28;20230;-83
2023/04/16 12:25:08;;;;;;;13.30;9.97;;;;;;;;;;5035383;28;20207;-84
2023/04/16 12:27:49;;;;;;;13.80;11.23;;;;;;;;;;5037974;28;20318;-84
2023/04/16 12:30:17;;;;;;;16.00;11.50;;;;;;;;;;5034830;28;20242;-83
2023/04/16 12:32:44;;;;;;;13.50;11.27;;;;;;;;;;5030568;28;20198;-84
2023/04/16 12:35:12;;;;;;;16.43;12.37;;;;;;;;;;5035844;28;20202;-84
2023/04/16 12:37:39;;;;;;;15.90;12.43;;;;;;;;;;5030519;28;20226;-83
2023/04/16 12:40:08;;;;;;;18.97;12.90;;;;;;;;;;5034802;28;20209;-83
2023/04/16 12:42:35;;;;;;;17.00;12.53;;;;;;;;;;5034288;28;20234;-85
2023/04/16 12:45:03;;;;;;;15.67;12.90;;;;;;;;;;5034854;28;20209;-83
2023/04/16 12:47:30;;;;;;;14.20;11.13;;;;;;;;;;5031065;28;20300;-83
2023/04/16 12:49:57;;;;;;;16.87;12.73;;;;;;;;;;5028918;28;20207;-83
2023/04/16 12:52:24;;;;;;;16.20;12.43;;;;;;;;;;5033025;28;20265;-85
2023/04/16 12:54:51;;;;;;;16.63;12.10;;;;;;;;;;5034706;28;20214;-84
2023/04/16 12:57:20;;;;;;;17.40;13.07;;;;;;;;;;5033676;28;20599;-84
2023/04/16 12:59:47;;;;;;;15.13;11.93;;;;;;;;;;5034732;28;20234;-84
2023/04/16 13:02:14;;;;;;;16.37;12.53;;;;;;;;;;5033803;28;20227;-85
2023/04/16 13:04:41;;;;;;;15.83;12.53;;;;;;;;;;5026413;28;20203;-84
2023/04/16 13:07:08;;;;;;;21.87;13.83;;;;;;;;;;5033464;28;20262;-84
2023/04/16 13:09:35;;;;;;;17.20;12.30;;;;;;;;;;5034102;28;20221;-84
2023/04/16 13:12:02;;;;;;;16.10;12.17;;;;;;;;;;5032867;28;20235;-84
2023/04/16 13:14:31;;;;;;;18.43;13.90;;;;;;;;;;5034544;28;20218;-84
2023/04/16 13:16:58;;;;;;;15.97;12.93;;;;;;;;;;5027568;28;20235;-84
2023/04/16 13:19:25;;;;;;;17.17;12.87;;;;;;;;;;5030453;28;20211;-85
2023/04/16 13:21:52;;;;;;;18.10;14.20;;;;;;;;;;5026205;28;20231;-85
2023/04/16 13:24:19;;;;;;;17.07;12.77;;;;;;;;;;5034065;28;20209;-85
2023/04/16 13:26:47;;;;;;;16.73;13.70;;;;;;;;;;5027041;28;20236;-85
2023/04/16 13:29:14;;;;;;;20.77;13.77;;;;;;;;;;5034447;28;20222;-84
2023/04/16 13:31:42;;;;;;;17.60;14.27;;;;;;;;;;5031066;28;20226;-85
2023/04/16 13:34:09;;;;;;;17.93;14.27;;;;;;;;;;5019484;28;20214;-85
2023/04/16 13:36:36;;;;;;;17.97;13.63;;;;;;;;;;5025081;28;20231;-84
2023/04/16 13:39:09;;;;;;;17.30;13.63;;;;;;;;;;5034466;28;20237;-84
2023/04/16 13:41:36;;;;;;;18.50;14.70;;;;;;;;;;5033742;28;20231;-83
2023/04/16 13:44:03;;;;;;;16.60;13.13;;;;;;;;;;5034993;28;20595;-83
2023/04/16 13:46:30;;;;;;;17.00;14.10;;;;;;;;;;5032880;28;20234;-84
2023/04/16 13:48:59;;;;;;;16.80;13.47;;;;;;;;;;5028597;28;20599;-83
2023/04/16 13:51:26;;;;;;;18.50;13.93;;;;;;;;;;5029101;28;20776;-83
2023/04/16 13:53:54;;;;;;;19.33;14.40;;;;;;;;;;5028835;28;20231;-83
2023/04/16 13:56:21;;;;;;;17.97;13.83;;;;;;;;;;5034006;28;20230;-83
2023/04/16 13:58:49;;;;;;;18.30;14.07;;;;;;;;;;5035370;28;20225;-83
2023/04/16 14:01:16;;;;;;;18.23;14.00;;;;;;;;;;5034288;28;20229;-83
2023/04/16 14:03:44;;;;;;;18.00;13.73;;;;;;;;;;5017737;28;20254;-82
2023/04/16 14:06:12;;;;;;;19.17;13.37;;;;;;;;;;5033543;28;20226;-82
2023/04/16 14:08:39;;;;;;;18.00;13.37;;;;;;;;;;5028486;28;20237;-82
2023/04/16 14:11:08;;;;;;;17.27;13.63;;;;;;;;;;5032804;28;20231;-81
2023/04/16 14:13:35;;;;;;;17.27;13.23;;;;;;;;;;5030668;28;20230;-81
2023/04/16 14:16:02;;;;;;;17.10;12.20;;;;;;;;;;5027230;28;20241;-82
2023/04/16 14:18:29;;;;;;;17.03;13.00;;;;;;;;;;5025594;28;20246;-82
2023/04/16 14:20:57;;;;;;;17.63;13.63;;;;;;;;;;5033103;28;20227;-81
2023/04/16 14:23:25;;;;;;;17.90;13.77;;;;;;;;;;5033568;28;20276;-82
2023/04/16 14:25:52;;;;;;;16.23;12.30;;;;;;;;;;5025818;28;20322;-82
2023/04/16 14:28:20;;;;;;;17.17;12.23;;;;;;;;;;5033335;28;20223;-82
2023/04/16 14:30:47;;;;;;;16.03;12.47;;;;;;;;;;5025126;28;20234;-82